Weather at Ipota Airport

Public forecast

Using degrees Celsius for public forecast. Weather courtesy of forecast.io.

Closest aviation weather report (METAR) to Ipota Airport

Report is more than 2 hours old.

Closest report is Tanna Airport, 36.1 nm (66.9 km) S. Retrieved 2022/07/04 09:00 UTC (6 hours ago):

NVVW 040900Z 09008KT 9999 -SHRA FEW018 BKN020 24/22 Q1014

Closest aviation forecast (TAF) to Ipota Airport

Forecast is more than 6 hours old.

Closest forecast is Tanna Airport, 36.1 nm (66.9 km) S. Retrieved 2022/07/04 06:00 UTC (9 hours ago):

TAF NVVW 040500Z 0406/0506 09008KT 9999 SCT020 INTER 0406/0412 9000 -SHRA BKN018